createdAt,value
2023-03-21T00:00:30.559Z,42.56
2023-03-21T00:01:30.563Z,43.11
2023-03-21T00:02:31.444Z,49.44
2023-03-21T00:03:30.589Z,49.09
2023-03-21T00:04:40.891Z,43.33
2023-03-21T00:05:32.632Z,53.44
2023-03-21T00:06:30.534Z,46.76
2023-03-21T00:07:30.561Z,44.57
2023-03-21T00:08:30.539Z,47.72
2023-03-21T00:09:30.564Z,56.47
2023-03-21T00:10:40.584Z,53.86
2023-03-21T00:11:32.544Z,53.23
2023-03-21T00:12:30.485Z,43.11
2023-03-21T00:13:30.487Z,55.53
2023-03-21T00:14:30.501Z,67.41
2023-03-21T00:15:44.090Z,48.32
2023-03-21T00:16:39.301Z,45.23
2023-03-21T00:17:31.461Z,54.12
2023-03-21T00:18:30.569Z,42.74
2023-03-21T00:19:30.425Z,43.25
2023-03-21T00:20:30.473Z,43.59
2023-03-21T00:21:49.041Z,49.42
2023-03-21T00:22:32.468Z,43.51
2023-03-21T00:23:30.490Z,42.40
2023-03-21T00:24:30.395Z,48.23
2023-03-21T00:25:30.415Z,54.79
2023-03-21T00:26:30.422Z,48.52
2023-03-21T00:27:47.536Z,59.41
2023-03-21T00:28:32.388Z,49.94
2023-03-21T00:29:30.372Z,48.44
2023-03-21T00:30:30.340Z,42.70
2023-03-21T00:31:30.363Z,48.02
2023-03-21T00:32:30.370Z,49.84
2023-03-21T00:33:30.454Z,47.29
2023-03-21T00:34:42.740Z,42.32
2023-03-21T00:35:57.784Z,42.29
2023-03-21T00:36:32.356Z,47.12
2023-03-21T00:37:30.341Z,43.49
2023-03-21T00:38:30.338Z,52.75
2023-03-21T00:39:30.266Z,43.01
2023-03-21T00:40:35.217Z,45.60
2023-03-21T00:41:42.064Z,50.58
2023-03-21T00:42:32.311Z,42.45
2023-03-21T00:43:30.257Z,42.39
2023-03-21T00:44:30.356Z,50.15
2023-03-21T00:45:30.950Z,42.76
2023-03-21T00:46:43.703Z,48.78
2023-03-21T00:47:32.303Z,52.68
2023-03-21T00:48:30.319Z,42.70
2023-03-21T00:49:30.197Z,49.38
2023-03-21T00:50:30.312Z,42.23
2023-03-21T00:51:30.232Z,42.37
2023-03-21T00:52:40.196Z,42.41
2023-03-21T00:53:32.185Z,48.97
2023-03-21T00:54:30.263Z,42.65
2023-03-21T00:55:30.235Z,42.24
2023-03-21T00:56:30.174Z,42.24
2023-03-21T00:57:38.525Z,42.26
2023-03-21T00:58:32.179Z,42.59
2023-03-21T00:59:30.221Z,48.80
2023-03-21T01:00:30.179Z,48.02
2023-03-21T01:01:30.100Z,43.50
2023-03-21T01:02:30.110Z,52.60
2023-03-21T01:03:30.106Z,48.25
2023-03-21T01:04:30.127Z,59.44
2023-03-21T01:05:30.136Z,48.60
2023-03-21T01:06:30.112Z,42.54
2023-03-21T01:07:30.181Z,48.69
2023-03-21T01:08:38.207Z,48.97
2023-03-21T01:09:32.895Z,46.49
2023-03-21T01:10:30.078Z,42.51
2023-03-21T01:11:30.077Z,48.96
2023-03-21T01:12:30.075Z,42.22
2023-03-21T01:13:30.033Z,42.17
2023-03-21T01:14:30.040Z,49.21
2023-03-21T01:15:30.037Z,42.51
2023-03-21T01:16:30.110Z,42.51
2023-03-21T01:17:30.027Z,49.05
2023-03-21T01:18:29.990Z,49.73
2023-03-21T01:19:48.386Z,42.24
2023-03-21T01:20:31.976Z,42.36
2023-03-21T01:21:29.976Z,53.18
2023-03-21T01:22:29.954Z,42.80
2023-03-21T01:23:29.956Z,51.34
2023-03-21T01:24:30.414Z,54.03
2023-03-21T01:25:30.030Z,42.95
2023-03-21T01:26:29.956Z,53.85
2023-03-21T01:27:29.922Z,42.42
2023-03-21T01:28:29.921Z,42.89
2023-03-21T01:29:29.922Z,52.13
2023-03-21T01:30:33.986Z,54.36
2023-03-21T01:31:31.920Z,42.46
2023-03-21T01:32:29.897Z,46.55
2023-03-21T01:33:29.886Z,58.46
2023-03-21T01:34:29.867Z,52.28
2023-03-21T01:35:32.111Z,46.30
2023-03-21T01:36:31.872Z,47.53
2023-03-21T01:37:29.864Z,51.88
2023-03-21T01:38:29.820Z,56.73
2023-03-21T01:39:29.822Z,52.33
2023-03-21T01:40:29.809Z,47.83
2023-03-21T01:41:42.020Z,52.58
2023-03-21T01:42:31.898Z,50.11
2023-03-21T01:43:29.799Z,54.45
2023-03-21T01:44:29.785Z,48.81
2023-03-21T01:45:29.828Z,49.52
2023-03-21T01:46:32.242Z,46.91
2023-03-21T01:47:31.808Z,44.54
2023-03-21T01:48:29.791Z,61.98
2023-03-21T01:49:29.791Z,48.16
2023-03-21T01:50:29.746Z,48.43
2023-03-21T01:51:29.763Z,54.07
2023-03-21T01:52:37.068Z,44.60
2023-03-21T01:53:31.750Z,42.22
2023-03-21T01:54:29.793Z,42.09
2023-03-21T01:55:29.700Z,47.72
2023-03-21T01:56:29.714Z,51.96
2023-03-21T01:57:35.476Z,43.89
2023-03-21T01:58:31.681Z,42.74
2023-03-21T01:59:29.666Z,48.01
2023-03-21T02:00:29.662Z,50.58
2023-03-21T02:01:29.753Z,51.23
2023-03-21T02:02:29.652Z,46.63
2023-03-21T02:03:35.939Z,42.20
2023-03-21T02:04:31.631Z,42.08
2023-03-21T02:05:29.651Z,42.14
2023-03-21T02:06:29.646Z,42.07
2023-03-21T02:07:29.720Z,42.03
2023-03-21T02:08:38.773Z,42.12
2023-03-21T02:09:31.649Z,49.80
2023-03-21T02:10:29.586Z,42.20
2023-03-21T02:11:29.625Z,42.37
2023-03-21T02:12:29.603Z,47.79
2023-03-21T02:13:29.551Z,49.29
2023-03-21T02:14:29.775Z,48.40
2023-03-21T02:15:30.555Z,58.11
2023-03-21T02:16:29.565Z,47.17
2023-03-21T02:17:30.397Z,42.28
2023-03-21T02:18:29.804Z,48.91
2023-03-21T02:19:34.241Z,46.59
2023-03-21T02:20:31.538Z,48.62
2023-03-21T02:21:29.536Z,43.37
2023-03-21T02:22:29.509Z,43.77
2023-03-21T02:23:29.556Z,45.89
2023-03-21T02:24:29.520Z,45.21
2023-03-21T02:25:29.505Z,42.03
2023-03-21T02:26:40.912Z,47.54
2023-03-21T02:27:31.447Z,42.00
2023-03-21T02:28:29.498Z,47.92
2023-03-21T02:29:29.455Z,42.61
2023-03-21T02:30:37.531Z,51.49
2023-03-21T02:31:31.480Z,48.27
2023-03-21T02:32:37.555Z,42.21
2023-03-21T02:33:31.441Z,42.24
2023-03-21T02:34:29.399Z,42.29
2023-03-21T02:35:29.384Z,47.93
2023-03-21T02:36:29.443Z,42.69
2023-03-21T02:37:37.639Z,47.00
2023-03-21T02:38:31.401Z,42.15
2023-03-21T02:39:29.398Z,42.23
2023-03-21T02:40:29.377Z,54.48
2023-03-21T02:41:35.115Z,42.18
2023-03-21T02:42:31.326Z,42.32
2023-03-21T02:43:29.341Z,48.98
2023-03-21T02:44:29.340Z,42.02
2023-03-21T02:45:29.370Z,42.00
2023-03-21T02:46:40.179Z,42.13
2023-03-21T02:47:31.283Z,42.27
2023-03-21T02:48:38.420Z,49.62
2023-03-21T02:49:31.327Z,45.62
2023-03-21T02:50:29.851Z,42.32
2023-03-21T02:51:29.276Z,53.87
2023-03-21T02:52:38.645Z,44.74
2023-03-21T02:53:31.259Z,45.12
2023-03-21T02:54:45.259Z,42.07
2023-03-21T02:55:31.262Z,42.04
2023-03-21T02:56:29.262Z,42.16
2023-03-21T02:57:41.673Z,42.84
2023-03-21T02:58:31.223Z,43.29
2023-03-21T02:59:29.225Z,49.49
2023-03-21T03:00:29.343Z,43.41
2023-03-21T03:01:29.217Z,42.41
2023-03-21T03:02:29.182Z,42.23
2023-03-21T03:03:34.566Z,42.31
2023-03-21T03:04:31.314Z,46.34
2023-03-21T03:05:29.195Z,60.99
2023-03-21T03:06:29.147Z,48.80
2023-03-21T03:07:29.160Z,46.53
2023-03-21T03:08:38.448Z,49.33
2023-03-21T03:09:31.127Z,42.02
2023-03-21T03:10:29.150Z,42.15
2023-03-21T03:11:29.174Z,48.30
2023-03-21T03:13:01.819Z,47.44
2023-03-21T03:13:29.092Z,48.55
2023-03-21T03:14:44.229Z,42.16
2023-03-21T03:15:31.096Z,49.23
2023-03-21T03:16:29.079Z,43.13
2023-03-21T03:17:29.102Z,56.38
2023-03-21T03:18:29.054Z,48.74
2023-03-21T03:19:30.044Z,42.20
2023-03-21T03:20:29.064Z,47.88
2023-03-21T03:21:29.100Z,54.60
2023-03-21T03:22:29.036Z,42.26
2023-03-21T03:23:29.061Z,42.03
2023-03-21T03:24:29.007Z,42.09
2023-03-21T03:25:41.687Z,46.60
2023-03-21T03:26:31.033Z,42.88
2023-03-21T03:27:29.090Z,48.86
2023-03-21T03:28:29.021Z,42.79
2023-03-21T03:29:29.994Z,52.16
2023-03-21T03:30:39.254Z,48.24
2023-03-21T03:31:31.008Z,42.57
2023-03-21T03:32:28.980Z,57.54
2023-03-21T03:33:28.947Z,46.16
2023-03-21T03:34:28.982Z,55.27
2023-03-21T03:35:28.938Z,48.32
2023-03-21T03:36:32.584Z,42.68
2023-03-21T03:37:29.934Z,58.42
2023-03-21T03:38:28.952Z,48.49
2023-03-21T03:39:28.900Z,46.47
2023-03-21T03:40:28.956Z,48.51
2023-03-21T03:41:30.211Z,53.79
2023-03-21T03:42:29.886Z,44.10
2023-03-21T03:43:29.875Z,44.46
2023-03-21T03:44:28.918Z,44.13
2023-03-21T03:45:28.841Z,53.95
2023-03-21T03:46:28.889Z,53.89
2023-03-21T04:03:49.481Z,55.17
2023-03-21T04:04:45.044Z,56.48
2023-03-21T04:05:43.959Z,61.18
2023-03-21T04:06:43.976Z,56.07
2023-03-21T04:07:45.117Z,56.69
2023-03-21T04:08:45.105Z,58.24
2023-03-21T04:09:45.303Z,56.77
2023-03-21T04:10:46.093Z,58.06
2023-03-21T04:11:45.061Z,55.86
2023-03-21T04:12:45.059Z,55.62
2023-03-21T04:13:45.087Z,60.26
2023-03-21T04:14:47.193Z,48.65
2023-03-21T04:15:46.216Z,54.81
2023-03-21T04:16:45.026Z,56.07
2023-03-21T04:17:45.714Z,63.03
2023-03-21T04:18:45.019Z,54.77
2023-03-21T04:19:45.020Z,58.33
2023-03-21T04:20:45.238Z,55.94
2023-03-21T04:21:45.016Z,61.35
2023-03-21T04:22:45.023Z,61.32
2023-03-21T04:23:45.029Z,53.42
2023-03-21T04:24:44.989Z,59.63
2023-03-21T04:25:56.028Z,62.10
2023-03-21T04:26:46.947Z,63.12
2023-03-21T04:27:44.964Z,50.63
2023-03-21T04:28:44.961Z,56.92
2023-03-21T04:29:44.980Z,60.73
2023-03-21T04:30:58.551Z,61.79
2023-03-21T04:31:47.038Z,66.70
2023-03-21T04:32:44.906Z,53.24
2023-03-21T04:33:44.913Z,55.78
2023-03-21T04:34:44.927Z,60.30
2023-03-21T04:35:44.915Z,65.14
2023-03-21T04:36:44.890Z,63.36
2023-03-21T04:37:44.887Z,65.35
2023-03-21T04:38:44.875Z,61.66
2023-03-21T04:39:44.883Z,65.61
2023-03-21T04:40:44.895Z,63.57
2023-03-21T04:41:44.860Z,56.46
2023-03-21T04:42:44.848Z,58.70
2023-03-21T04:43:44.839Z,61.86
2023-03-21T04:44:44.829Z,62.14
2023-03-21T04:45:44.826Z,58.32
2023-03-21T04:46:44.890Z,66.59
2023-03-21T04:47:44.847Z,67.86
2023-03-21T04:48:44.819Z,59.40
2023-03-21T04:49:44.805Z,65.56
2023-03-21T04:50:44.778Z,55.43
2023-03-21T04:51:44.758Z,56.74
2023-03-21T04:52:44.785Z,58.86
2023-03-21T04:53:44.775Z,69.76
2023-03-21T04:54:44.796Z,53.62
2023-03-21T04:55:44.722Z,64.39
2023-03-21T04:56:44.797Z,65.46
2023-03-21T04:57:44.727Z,61.01
2023-03-21T04:58:44.696Z,57.27
2023-03-21T04:59:44.700Z,58.90
2023-03-21T05:00:44.729Z,64.76
2023-03-21T05:01:44.691Z,59.15
2023-03-21T05:02:44.650Z,60.67
2023-03-21T05:03:44.724Z,50.73
2023-03-21T05:04:44.665Z,66.86
2023-03-21T05:05:44.658Z,66.12
2023-03-21T05:06:44.664Z,56.07
2023-03-21T05:07:44.652Z,61.83
2023-03-21T05:08:44.632Z,60.74
2023-03-21T05:09:44.628Z,64.03
2023-03-21T05:10:44.627Z,62.75
2023-03-21T05:11:44.592Z,65.56
2023-03-21T05:12:44.646Z,56.70
2023-03-21T05:13:44.594Z,63.26
2023-03-21T05:14:44.580Z,59.94
2023-03-21T05:15:45.556Z,65.60
2023-03-21T05:16:44.625Z,70.57
2023-03-21T05:17:44.614Z,61.48
2023-03-21T05:18:44.545Z,68.86
2023-03-21T05:19:44.528Z,63.79
2023-03-21T05:20:44.551Z,58.55
2023-03-21T05:21:44.522Z,61.27
2023-03-21T05:22:44.558Z,65.07
2023-03-21T05:23:44.498Z,68.30
2023-03-21T05:24:44.508Z,70.32
2023-03-21T05:25:44.472Z,67.76
2023-03-21T05:26:44.576Z,65.76
2023-03-21T05:27:44.467Z,58.34
2023-03-21T05:28:44.480Z,64.93
2023-03-21T05:29:44.474Z,59.75
2023-03-21T05:30:44.468Z,63.33
2023-03-21T05:31:44.521Z,66.86
2023-03-21T05:32:44.508Z,66.80
2023-03-21T05:33:44.528Z,69.32
2023-03-21T05:35:17.148Z,67.81
2023-03-21T05:35:44.501Z,58.95
2023-03-21T05:37:17.140Z,68.97
2023-03-21T05:37:44.422Z,67.34
2023-03-21T05:38:44.375Z,66.09
2023-03-21T05:39:44.367Z,67.87
2023-03-21T05:40:44.358Z,66.68
2023-03-21T05:41:44.358Z,62.66
2023-03-21T05:42:44.438Z,68.04
2023-03-21T05:43:44.367Z,70.04
2023-03-21T05:44:44.395Z,65.62
2023-03-21T05:45:44.349Z,66.49
2023-03-21T05:46:44.386Z,68.69
2023-03-21T05:47:47.341Z,69.27
2023-03-21T05:48:45.387Z,64.20
2023-03-21T05:49:44.362Z,67.56
2023-03-21T05:50:44.300Z,71.39
2023-03-21T05:51:44.310Z,62.53
2023-03-21T05:52:44.295Z,65.64
2023-03-21T05:53:44.293Z,67.63
2023-03-21T05:54:44.282Z,64.97
2023-03-21T05:55:44.283Z,68.44
2023-03-21T05:56:44.251Z,71.45
2023-03-21T05:57:44.251Z,66.07
2023-03-21T05:58:44.261Z,57.89
2023-03-21T05:59:44.220Z,69.50
2023-03-21T06:00:44.274Z,68.88
2023-03-21T06:01:44.239Z,59.00
2023-03-21T06:02:44.268Z,67.89
2023-03-21T06:03:44.312Z,72.61
2023-03-21T06:04:44.213Z,68.19
2023-03-21T06:05:44.209Z,67.64
2023-03-21T06:06:44.174Z,62.34
2023-03-21T06:07:44.168Z,69.71
2023-03-21T06:08:44.174Z,67.01
2023-03-21T06:09:44.194Z,66.76
2023-03-21T06:10:44.141Z,69.35
2023-03-21T06:11:44.148Z,68.15
2023-03-21T06:12:44.120Z,69.33
2023-03-21T06:13:44.111Z,67.78
2023-03-21T06:14:44.141Z,70.77
2023-03-21T06:15:44.218Z,68.78
2023-03-21T06:16:44.137Z,70.35
2023-03-21T06:17:44.119Z,68.39
2023-03-21T06:18:44.070Z,72.73
2023-03-21T06:19:44.109Z,72.14
2023-03-21T06:20:45.070Z,72.06
2023-03-21T06:21:44.090Z,68.88
2023-03-21T06:22:44.060Z,71.03
2023-03-21T06:23:44.023Z,70.51
2023-03-21T06:24:44.085Z,68.87
2023-03-21T06:25:44.033Z,69.86
2023-03-21T06:26:44.076Z,72.60
2023-03-21T06:27:44.058Z,71.29
2023-03-21T06:28:44.041Z,71.23
2023-03-21T06:29:43.986Z,72.11
2023-03-21T06:30:44.002Z,66.65
2023-03-21T06:31:44.034Z,70.24
2023-03-21T06:32:43.997Z,68.58
2023-03-21T06:33:43.991Z,70.91
2023-03-21T06:34:43.972Z,70.29
2023-03-21T06:35:43.992Z,73.44
2023-03-21T06:36:43.959Z,71.45
2023-03-21T06:37:44.013Z,70.69
2023-03-21T06:38:43.941Z,71.90
2023-03-21T06:39:43.961Z,67.28
2023-03-21T06:40:44.190Z,66.89
2023-03-21T06:41:43.890Z,66.15
2023-03-21T06:42:43.967Z,70.90
2023-03-21T06:44:16.683Z,69.48
2023-03-21T06:44:43.976Z,71.05
2023-03-21T06:45:43.874Z,65.57
2023-03-21T06:46:43.992Z,65.37
2023-03-21T06:47:43.893Z,66.99
2023-03-21T06:48:43.869Z,68.12
2023-03-21T06:49:43.859Z,70.38
2023-03-21T06:50:43.813Z,66.34
2023-03-21T06:51:43.811Z,66.37
2023-03-21T06:52:43.831Z,60.57
2023-03-21T06:53:43.822Z,65.71
2023-03-21T06:54:43.825Z,66.62
2023-03-21T06:55:43.778Z,65.58
2023-03-21T06:56:43.792Z,69.95
2023-03-21T06:57:43.807Z,67.96
2023-03-21T06:58:43.784Z,69.54
2023-03-21T06:59:43.742Z,68.33
2023-03-21T07:00:43.800Z,66.51
2023-03-21T07:01:43.734Z,67.09
2023-03-21T07:02:43.752Z,65.19
2023-03-21T07:03:43.718Z,67.55
2023-03-21T07:04:43.705Z,61.96
2023-03-21T07:05:43.711Z,67.99
2023-03-21T07:06:43.710Z,70.66
2023-03-21T07:07:43.677Z,67.96
2023-03-21T07:08:43.721Z,66.09
2023-03-21T07:09:43.754Z,65.28
2023-03-21T07:10:45.348Z,64.14
2023-03-21T07:11:44.688Z,67.61
2023-03-21T07:12:43.708Z,65.01
2023-03-21T07:13:43.663Z,64.57
2023-03-21T07:14:43.678Z,60.97
2023-03-21T07:15:43.632Z,66.82
2023-03-21T07:16:43.653Z,66.92
2023-03-21T07:17:43.835Z,66.75
2023-03-21T07:18:43.676Z,62.67
2023-03-21T07:19:44.868Z,63.52
2023-03-21T07:20:44.631Z,67.64
2023-03-21T07:21:43.622Z,68.33
2023-03-21T07:22:43.565Z,61.55
2023-03-21T07:23:43.558Z,59.83
2023-03-21T07:24:44.984Z,68.28
2023-03-21T07:25:43.638Z,68.17
2023-03-21T07:26:43.620Z,69.33
2023-03-21T07:27:43.581Z,65.07
2023-03-21T07:28:43.549Z,60.99
2023-03-21T07:29:43.558Z,68.93
2023-03-21T07:30:44.179Z,66.11
2023-03-21T07:31:43.939Z,63.25
2023-03-21T07:32:44.115Z,65.71
2023-03-21T07:33:43.522Z,68.97
2023-03-21T07:34:43.536Z,68.33
2023-03-21T07:35:43.510Z,67.27
2023-03-21T07:36:43.483Z,63.45
2023-03-21T07:37:43.468Z,67.18
2023-03-21T07:38:43.515Z,70.16
2023-03-21T07:39:43.471Z,67.32
2023-03-21T07:40:43.450Z,67.82
2023-03-21T07:41:43.453Z,66.77
2023-03-21T07:42:43.412Z,65.92
2023-03-21T07:43:43.404Z,64.34
2023-03-21T07:44:43.426Z,66.23
2023-03-21T07:45:43.459Z,63.61
2023-03-21T07:46:43.437Z,69.41
2023-03-21T07:47:43.425Z,64.45
2023-03-21T07:48:43.383Z,61.73
2023-03-21T07:49:43.389Z,64.80
2023-03-21T07:50:43.358Z,65.38
2023-03-21T07:51:43.455Z,63.59
2023-03-21T07:52:43.359Z,62.16
2023-03-21T07:53:44.300Z,66.66
2023-03-21T07:54:43.336Z,65.09
2023-03-21T07:55:43.328Z,61.61
2023-03-21T07:56:43.313Z,61.79
2023-03-21T07:57:43.295Z,66.38
2023-03-21T07:58:43.314Z,65.70
2023-03-21T07:59:43.302Z,62.49
2023-03-21T08:00:43.319Z,67.78
2023-03-21T08:01:43.285Z,64.47
2023-03-21T08:02:43.511Z,63.49
2023-03-21T08:03:43.292Z,66.77
2023-03-21T08:04:43.251Z,66.97
2023-03-21T08:05:43.251Z,64.76
2023-03-21T08:06:43.242Z,57.91
2023-03-21T08:07:43.248Z,66.29
2023-03-21T08:08:43.215Z,64.84
2023-03-21T08:09:43.239Z,62.54
2023-03-21T08:10:43.218Z,67.77
2023-03-21T08:11:43.204Z,66.02
2023-03-21T08:12:43.193Z,60.53
2023-03-21T08:13:43.816Z,69.44
2023-03-21T08:14:43.203Z,68.43
2023-03-21T08:15:43.173Z,63.52
2023-03-21T08:17:15.741Z,65.76
2023-03-21T08:18:15.738Z,65.44
2023-03-21T08:19:15.093Z,70.52
2023-03-21T08:19:43.142Z,66.05
2023-03-21T08:20:44.128Z,67.66
2023-03-21T08:21:43.140Z,64.03
2023-03-21T08:22:44.113Z,65.09
2023-03-21T08:23:43.119Z,70.17
2023-03-21T08:24:43.108Z,64.44
2023-03-21T08:25:43.082Z,63.21
2023-03-21T08:26:43.266Z,65.64
2023-03-21T08:27:43.868Z,63.66
2023-03-21T08:28:43.063Z,60.43
2023-03-21T08:29:43.215Z,65.47
2023-03-21T08:30:43.102Z,67.19
2023-03-21T08:31:43.079Z,67.04
2023-03-21T08:32:43.185Z,63.31
2023-03-21T08:33:43.048Z,66.95
2023-03-21T08:34:43.051Z,68.82
2023-03-21T08:35:43.295Z,67.50
2023-03-21T08:36:43.006Z,64.79
2023-03-21T08:37:42.997Z,59.19
2023-03-21T08:38:42.999Z,65.79
2023-03-21T08:39:43.525Z,66.27
2023-03-21T08:40:43.011Z,63.35
2023-03-21T08:41:43.705Z,63.27
2023-03-21T08:42:42.957Z,65.51
2023-03-21T08:43:42.961Z,59.82
2023-03-21T08:44:42.964Z,69.79
2023-03-21T08:45:42.950Z,68.60
2023-03-21T08:46:43.003Z,58.61
2023-03-21T08:47:43.002Z,65.59
2023-03-21T08:48:42.989Z,65.23
2023-03-21T08:49:42.926Z,64.02
2023-03-21T08:50:42.914Z,62.44
2023-03-21T08:51:42.914Z,68.70
2023-03-21T08:52:42.975Z,66.60
2023-03-21T08:53:42.875Z,66.39
2023-03-21T08:54:42.896Z,64.60
2023-03-21T08:55:42.930Z,65.91
2023-03-21T08:56:42.891Z,65.86
2023-03-21T08:57:42.868Z,63.37
2023-03-21T08:58:42.903Z,61.99
2023-03-21T08:59:42.838Z,67.39
2023-03-21T09:00:42.825Z,62.38
2023-03-21T09:01:42.925Z,62.42
2023-03-21T09:02:42.881Z,64.13
2023-03-21T09:03:42.868Z,59.25
2023-03-21T09:04:42.898Z,62.48
2023-03-21T09:05:42.779Z,60.18
2023-03-21T09:06:42.760Z,61.78
2023-03-21T09:07:42.809Z,65.08
2023-03-21T09:08:42.781Z,59.68
2023-03-21T09:09:42.777Z,58.31
2023-03-21T09:10:42.760Z,61.21
2023-03-21T09:11:42.732Z,70.61
2023-03-21T09:12:42.733Z,62.53
2023-03-21T09:13:42.806Z,65.41
2023-03-21T09:14:42.712Z,58.26
2023-03-21T09:15:42.743Z,63.98
2023-03-21T09:16:42.726Z,63.89
2023-03-21T09:17:43.434Z,67.36
2023-03-21T09:18:42.722Z,67.43
2023-03-21T09:19:42.739Z,66.68
2023-03-21T09:20:42.700Z,64.79
2023-03-21T09:21:42.659Z,66.15
2023-03-21T09:22:42.955Z,62.32
2023-03-21T09:23:43.663Z,57.22
2023-03-21T09:24:42.637Z,65.78
2023-03-21T09:25:42.691Z,69.59
2023-03-21T09:26:42.689Z,67.97
2023-03-21T09:27:42.630Z,60.80
2023-03-21T09:28:42.737Z,64.37
2023-03-21T09:29:42.620Z,66.48
2023-03-21T09:30:42.608Z,63.34
2023-03-21T09:31:42.682Z,63.56
2023-03-21T09:32:42.572Z,62.62
2023-03-21T09:33:42.579Z,64.09
2023-03-21T09:34:42.578Z,63.70
2023-03-21T09:35:42.638Z,59.20
2023-03-21T09:36:42.545Z,67.18
2023-03-21T09:37:42.533Z,62.07
2023-03-21T09:38:42.866Z,67.25
2023-03-21T09:39:43.623Z,58.71
2023-03-21T09:40:42.559Z,59.29
2023-03-21T09:41:42.497Z,66.61
2023-03-21T09:42:42.499Z,65.19
2023-03-21T09:43:42.505Z,63.96
2023-03-21T09:44:42.494Z,68.00
2023-03-21T09:45:42.519Z,64.60
2023-03-21T09:46:42.556Z,63.87
2023-03-21T09:47:42.476Z,66.94
2023-03-21T09:48:56.089Z,64.02
2023-03-21T09:49:44.453Z,70.03
2023-03-21T09:50:42.446Z,67.76
2023-03-21T09:51:42.461Z,56.94
2023-03-21T09:52:42.437Z,67.86
2023-03-21T09:53:42.473Z,60.12
2023-03-21T09:54:42.439Z,63.58
2023-03-21T09:55:42.402Z,65.94
2023-03-21T09:56:42.433Z,64.32
2023-03-21T09:57:42.381Z,60.31
2023-03-21T09:58:42.480Z,67.17
2023-03-21T09:59:42.978Z,64.95
2023-03-21T10:00:42.433Z,68.05
2023-03-21T10:01:42.456Z,65.10
2023-03-21T10:02:42.356Z,64.27
2023-03-21T10:03:42.321Z,63.19
2023-03-21T10:04:42.502Z,66.76
2023-03-21T10:05:42.369Z,69.28
2023-03-21T10:06:42.366Z,61.94
2023-03-21T10:07:42.330Z,64.72
2023-03-21T10:08:42.310Z,66.90
2023-03-21T10:09:42.328Z,65.02
2023-03-21T10:10:42.277Z,64.94
2023-03-21T10:11:42.285Z,65.82
2023-03-21T10:12:42.272Z,64.51
2023-03-21T10:13:42.284Z,67.02
2023-03-21T10:14:42.268Z,67.98
2023-03-21T10:15:42.281Z,64.11
2023-03-21T10:16:42.267Z,65.08
2023-03-21T10:17:42.241Z,67.26
2023-03-21T10:18:42.298Z,60.10
2023-03-21T10:19:42.251Z,62.52
2023-03-21T10:20:42.273Z,64.56
2023-03-21T10:22:01.310Z,65.10
2023-03-21T10:22:44.204Z,65.56
2023-03-21T10:23:42.232Z,53.10
2023-03-21T10:24:42.229Z,66.97
2023-03-21T10:25:42.552Z,60.87
2023-03-21T10:26:42.175Z,65.08
2023-03-21T10:27:42.196Z,61.85
2023-03-21T10:28:52.324Z,64.85
2023-03-21T10:29:44.163Z,66.12
2023-03-21T10:30:42.177Z,66.00
2023-03-21T10:31:42.153Z,65.11
2023-03-21T10:32:42.224Z,61.93
2023-03-21T10:33:42.156Z,68.87
2023-03-21T10:34:42.154Z,65.74
2023-03-21T10:35:42.334Z,65.60
2023-03-21T10:36:42.110Z,67.95
2023-03-21T10:37:42.847Z,65.09
2023-03-21T10:38:42.091Z,63.24
2023-03-21T10:39:42.095Z,67.04
2023-03-21T10:40:42.057Z,63.14
2023-03-21T10:41:43.090Z,65.37
2023-03-21T10:42:42.088Z,66.92
2023-03-21T10:43:42.044Z,70.23
2023-03-21T10:44:42.048Z,63.49
2023-03-21T10:45:42.130Z,63.82
2023-03-21T10:46:42.255Z,65.33
2023-03-21T10:47:42.370Z,66.94
2023-03-21T10:48:42.146Z,55.61
2023-03-21T10:50:06.363Z,68.52
2023-03-21T10:50:44.038Z,65.78
2023-03-21T10:51:42.001Z,59.77
2023-03-21T10:52:42.021Z,64.68
2023-03-21T10:53:41.943Z,65.04
2023-03-21T10:54:41.951Z,67.39
2023-03-21T10:55:41.948Z,64.29
2023-03-21T10:56:41.924Z,64.88
2023-03-21T10:57:41.950Z,66.80
2023-03-21T10:58:41.921Z,66.67
2023-03-21T10:59:41.971Z,66.51
2023-03-21T11:00:41.916Z,66.01
2023-03-21T11:01:42.102Z,65.52
2023-03-21T11:02:41.958Z,63.30
2023-03-21T11:03:41.929Z,61.77
2023-03-21T11:04:41.885Z,66.90
2023-03-21T11:05:42.387Z,63.97
2023-03-21T11:06:41.898Z,64.02
2023-03-21T11:07:41.925Z,67.27
2023-03-21T11:08:41.854Z,67.19
2023-03-21T11:09:41.844Z,63.87
2023-03-21T11:10:41.817Z,66.11
2023-03-21T11:11:41.846Z,63.42
2023-03-21T11:12:41.839Z,65.51
2023-03-21T11:13:41.796Z,68.86
2023-03-21T11:14:41.871Z,68.24
2023-03-21T11:15:41.866Z,62.69
2023-03-21T11:16:41.876Z,66.82
2023-03-21T11:17:41.761Z,64.03
2023-03-21T11:18:41.767Z,67.85
2023-03-21T11:19:41.766Z,66.26
2023-03-21T11:20:41.763Z,64.71
2023-03-21T11:21:41.758Z,67.07
2023-03-21T11:22:41.756Z,66.84
2023-03-21T11:23:41.734Z,66.47
2023-03-21T11:24:41.764Z,65.84
2023-03-21T11:25:42.458Z,66.18
2023-03-21T11:26:41.680Z,63.12
2023-03-21T11:27:41.702Z,64.41
2023-03-21T11:28:41.707Z,60.32
2023-03-21T11:29:42.740Z,64.10
2023-03-21T11:30:41.786Z,64.37
2023-03-21T11:31:41.713Z,66.44
2023-03-21T11:32:41.657Z,64.70
2023-03-21T11:33:41.630Z,62.81
2023-03-21T11:34:42.007Z,65.18
2023-03-21T11:35:42.009Z,63.56
2023-03-21T11:36:41.676Z,64.38
2023-03-21T11:37:41.790Z,66.25
2023-03-21T11:38:41.614Z,66.71
2023-03-21T11:39:41.671Z,67.33
2023-03-21T11:40:41.596Z,63.22
2023-03-21T11:41:41.613Z,63.52
2023-03-21T11:42:41.593Z,66.95
2023-03-21T11:43:41.578Z,62.70
2023-03-21T11:44:41.580Z,61.73
2023-03-21T11:45:41.777Z,69.45
2023-03-21T11:46:41.581Z,65.62
2023-03-21T11:47:41.603Z,65.89
2023-03-21T11:48:41.553Z,67.14
2023-03-21T11:49:41.526Z,63.76
2023-03-21T11:50:41.564Z,63.59
2023-03-21T11:51:41.523Z,64.74
2023-03-21T11:52:41.531Z,64.00
2023-03-21T11:53:41.494Z,69.46
2023-03-21T11:54:41.488Z,64.73
2023-03-21T11:55:41.517Z,62.96
2023-03-21T11:56:41.483Z,64.08
2023-03-21T11:57:41.456Z,66.07
2023-03-21T11:58:42.896Z,64.84
2023-03-21T11:59:41.433Z,66.09
2023-03-21T12:00:41.992Z,66.60
2023-03-21T12:01:41.448Z,68.56
2023-03-21T12:02:41.519Z,65.84
2023-03-21T12:03:48.292Z,67.02
2023-03-21T12:04:43.434Z,65.10
2023-03-21T12:05:41.562Z,64.82
2023-03-21T12:06:41.480Z,67.91
2023-03-21T12:07:41.419Z,67.56
2023-03-21T12:08:41.372Z,67.21
2023-03-21T12:09:41.372Z,66.27
2023-03-21T12:10:41.379Z,61.04
2023-03-21T12:11:41.431Z,67.06
2023-03-21T12:12:41.384Z,62.93
2023-03-21T12:13:42.022Z,64.33
2023-03-21T12:14:41.314Z,61.05
2023-03-21T12:15:41.512Z,63.86
2023-03-21T12:16:41.516Z,63.73
2023-03-21T12:17:41.321Z,67.43
2023-03-21T12:18:41.338Z,55.60
2023-03-21T12:19:41.300Z,65.95
2023-03-21T12:20:41.325Z,64.91
2023-03-21T12:21:41.299Z,67.49
2023-03-21T12:23:13.257Z,65.34
2023-03-21T12:23:42.375Z,67.56
2023-03-21T12:24:42.736Z,65.88
2023-03-21T12:25:41.269Z,66.68
2023-03-21T12:26:41.305Z,68.05
2023-03-21T12:27:42.079Z,67.17
2023-03-21T12:28:41.282Z,64.27
2023-03-21T12:29:41.264Z,66.92
2023-03-21T12:30:41.211Z,64.75
2023-03-21T12:31:41.231Z,65.36
2023-03-21T12:32:41.266Z,60.80
2023-03-21T12:33:41.175Z,64.89
2023-03-21T12:34:41.187Z,68.68
2023-03-21T12:35:41.680Z,67.37
2023-03-21T12:36:41.171Z,64.94
2023-03-21T12:37:41.168Z,65.10
2023-03-21T12:38:41.181Z,64.68
2023-03-21T12:39:41.193Z,66.33
2023-03-21T12:40:41.964Z,65.99
2023-03-21T12:41:41.102Z,65.30
2023-03-21T12:42:41.107Z,68.78
2023-03-21T12:43:41.139Z,67.34
2023-03-21T12:44:41.111Z,62.04
2023-03-21T12:45:47.009Z,65.80
2023-03-21T12:46:43.264Z,64.36
2023-03-21T12:47:41.164Z,58.43
2023-03-21T12:48:42.047Z,63.72
2023-03-21T12:49:41.140Z,67.31
2023-03-21T12:50:41.066Z,68.14
2023-03-21T12:51:41.053Z,60.98
2023-03-21T12:52:41.024Z,68.34
2023-03-21T12:53:41.035Z,65.88
2023-03-21T12:54:41.049Z,67.28
2023-03-21T12:55:41.134Z,64.19
2023-03-21T12:56:40.992Z,65.75
2023-03-21T12:57:47.799Z,67.37
2023-03-21T12:58:43.080Z,66.81
2023-03-21T12:59:42.007Z,68.38
2023-03-21T13:00:41.229Z,66.62
2023-03-21T13:01:40.988Z,65.20
2023-03-21T13:02:40.993Z,68.06
2023-03-21T13:03:40.925Z,67.40
2023-03-21T13:04:41.017Z,67.72
2023-03-21T13:05:40.914Z,67.14
2023-03-21T13:06:40.951Z,68.77
2023-03-21T13:07:40.930Z,62.20
2023-03-21T13:08:40.975Z,66.30